createdAt,value
2019-05-20T00:00:02.317Z,12.10
2019-05-20T00:02:50.307Z,12.10
2019-05-20T00:05:38.366Z,12.00
2019-05-20T00:08:26.363Z,12.10
2019-05-20T00:16:49.456Z,12.20
2019-05-20T00:19:30.406Z,12.10
2019-05-20T00:21:59.216Z,12.10
2019-05-20T00:24:47.191Z,12.00
2019-05-20T00:27:35.160Z,12.00
2019-05-20T00:30:23.217Z,12.00
2019-05-20T00:33:11.322Z,11.90
2019-05-20T00:35:59.324Z,11.80
2019-05-20T00:39:06.416Z,11.80
2019-05-20T00:41:54.393Z,11.70
2019-05-20T00:44:42.411Z,11.60
2019-05-20T00:47:30.485Z,11.60
2019-05-20T00:50:18.820Z,11.60
2019-05-20T00:53:07.002Z,11.60
2019-05-20T00:55:55.302Z,11.50
2019-05-20T00:58:24.322Z,11.50
2019-05-20T01:01:12.605Z,11.50
2019-05-20T01:04:00.912Z,11.50
2019-05-20T01:06:49.164Z,11.40
2019-05-20T01:09:37.130Z,11.40
2019-05-20T01:12:25.155Z,11.30
2019-05-20T01:15:13.199Z,11.30
2019-05-20T01:18:01.230Z,11.20
2019-05-20T01:20:42.270Z,11.20
2019-05-20T01:23:23.142Z,11.10
2019-05-20T01:26:04.013Z,11.10
2019-05-20T01:28:44.480Z,11.10
2019-05-20T01:31:25.243Z,11.10
2019-05-20T01:34:05.902Z,11.20
2019-05-20T01:36:46.942Z,11.20
2019-05-20T01:39:27.444Z,11.10
2019-05-20T01:42:08.197Z,11.10
2019-05-20T01:44:48.980Z,11.00
2019-05-20T01:47:29.732Z,11.00
2019-05-20T01:50:09.116Z,11.00
2019-05-20T01:52:57.361Z,11.00
2019-05-20T01:55:45.331Z,10.90
2019-05-20T01:58:33.279Z,10.90
2019-05-20T02:01:21.234Z,10.90
2019-05-20T02:04:09.255Z,10.90
2019-05-20T02:06:37.998Z,10.90
2019-05-20T02:09:25.951Z,10.90
2019-05-20T02:12:14.172Z,10.90
2019-05-20T02:17:56.201Z,10.80
2019-05-20T02:20:44.171Z,10.70
2019-05-20T02:23:32.119Z,10.70
2019-05-20T02:26:20.136Z,10.70
2019-05-20T02:29:08.087Z,10.60
2019-05-20T02:31:56.041Z,10.60
2019-05-20T02:34:43.999Z,10.60
2019-05-20T02:37:31.984Z,10.60
2019-05-20T02:40:19.958Z,10.60
2019-05-20T02:43:07.931Z,10.60
2019-05-20T02:45:55.975Z,10.60
2019-05-20T02:48:43.945Z,10.50
2019-05-20T02:51:31.986Z,10.50
2019-05-20T02:54:19.944Z,10.50
2019-05-20T02:57:07.885Z,10.50
2019-05-20T02:59:55.819Z,10.50
2019-05-20T03:02:43.782Z,10.50
2019-05-20T03:05:31.747Z,10.60
2019-05-20T03:08:19.934Z,10.60
2019-05-20T03:11:07.870Z,10.50
2019-05-20T03:13:55.859Z,10.50
2019-05-20T03:16:43.895Z,10.50
2019-05-20T03:19:25.098Z,10.50
2019-05-20T03:22:05.381Z,10.50
2019-05-20T03:24:46.031Z,10.40
2019-05-20T03:27:26.634Z,10.50
2019-05-20T03:30:07.688Z,10.40
2019-05-20T03:32:48.253Z,10.40
2019-05-20T03:35:28.953Z,10.40
2019-05-20T03:38:09.677Z,10.40
2019-05-20T03:40:50.446Z,10.40
2019-05-20T03:43:31.346Z,10.40
2019-05-20T03:46:12.309Z,10.40
2019-05-20T03:48:41.056Z,10.40
2019-05-20T03:51:29.037Z,10.40
2019-05-20T03:54:17.007Z,10.40
2019-05-20T03:57:04.958Z,10.30
2019-05-20T03:59:52.912Z,10.30
2019-05-20T04:02:40.921Z,10.40
2019-05-20T04:05:49.506Z,10.40
2019-05-20T04:08:37.468Z,10.50
2019-05-20T04:11:25.482Z,10.50
2019-05-20T04:14:13.461Z,10.60
2019-05-20T04:17:01.738Z,10.70
2019-05-20T04:19:42.842Z,10.80
2019-05-20T04:22:23.475Z,10.90
2019-05-20T04:25:03.977Z,11.00
2019-05-20T04:27:44.877Z,11.00
2019-05-20T04:30:25.550Z,11.10
2019-05-20T04:33:06.136Z,11.10
2019-05-20T04:35:49.804Z,11.20
2019-05-20T04:38:29.748Z,11.20
2019-05-20T04:41:10.564Z,11.30
2019-05-20T04:43:51.291Z,11.40
2019-05-20T04:46:32.120Z,11.40
2019-05-20T04:49:13.046Z,11.50
2019-05-20T04:51:53.434Z,11.50
2019-05-20T04:54:34.284Z,11.60
2019-05-20T04:57:15.072Z,11.70
2019-05-20T04:59:55.980Z,11.80
2019-05-20T05:02:36.729Z,11.90
2019-05-20T05:05:17.503Z,12.10
2019-05-20T05:07:46.405Z,12.20
2019-05-20T05:10:34.632Z,12.30
2019-05-20T05:13:22.751Z,12.40
2019-05-20T05:15:51.663Z,12.60
2019-05-20T05:18:32.941Z,12.70
2019-05-20T05:21:01.759Z,12.90
2019-05-20T05:23:58.732Z,13.00
2019-05-20T05:26:20.512Z,13.10
2019-05-20T05:28:49.321Z,13.30
2019-05-20T05:31:37.332Z,13.30
2019-05-20T05:34:25.342Z,13.40
2019-05-20T05:36:54.264Z,13.50
2019-05-20T05:39:42.201Z,13.60
2019-05-20T05:42:10.970Z,13.60
2019-05-20T05:44:58.962Z,13.60
2019-05-20T05:47:47.050Z,13.70
2019-05-20T05:50:15.862Z,13.70
2019-05-20T05:53:04.183Z,13.80
2019-05-20T05:55:52.146Z,13.90
2019-05-20T05:58:20.900Z,13.90
2019-05-20T06:00:49.674Z,13.90
2019-05-20T06:03:18.466Z,14.00
2019-05-20T06:05:47.195Z,14.00
2019-05-20T06:08:15.891Z,14.00
2019-05-20T06:10:44.648Z,14.10
2019-05-20T06:13:13.341Z,14.10
2019-05-20T06:15:42.041Z,14.20
2019-05-20T06:18:30.020Z,14.20
2019-05-20T06:21:18.081Z,14.30
2019-05-20T06:29:41.410Z,14.80
2019-05-20T06:32:29.389Z,14.80
2019-05-20T06:35:17.321Z,14.80
2019-05-20T06:41:02.285Z,15.10
2019-05-20T06:43:50.228Z,15.50
2019-05-20T06:46:38.183Z,15.90
2019-05-20T06:49:26.230Z,16.10
2019-05-20T06:52:14.482Z,16.30
2019-05-20T06:55:02.510Z,16.60
2019-05-20T06:57:50.474Z,16.60
2019-05-20T07:00:39.048Z,16.60
2019-05-20T07:03:47.690Z,16.70
2019-05-20T07:06:45.889Z,16.60
2019-05-20T07:09:25.375Z,16.70
2019-05-20T07:12:13.335Z,16.70
2019-05-20T07:15:01.285Z,16.90
2019-05-20T07:17:49.250Z,16.90
2019-05-20T07:20:30.126Z,17.00
2019-05-20T07:23:11.269Z,17.40
2019-05-20T07:25:52.202Z,17.80
2019-05-20T07:28:33.091Z,18.30
2019-05-20T07:31:13.689Z,18.70
2019-05-20T07:33:54.500Z,19.00
2019-05-20T07:36:35.131Z,18.40
2019-05-20T07:39:15.891Z,18.00
2019-05-20T07:41:56.444Z,17.70
2019-05-20T07:44:37.316Z,17.30
2019-05-20T07:47:18.091Z,17.00
2019-05-20T07:49:58.758Z,16.90
2019-05-20T07:52:39.899Z,16.80
2019-05-20T07:55:21.198Z,17.20
2019-05-20T07:58:02.421Z,17.70
2019-05-20T08:00:41.830Z,18.20
2019-05-20T08:03:29.838Z,19.00
2019-05-20T08:06:17.898Z,19.50
2019-05-20T08:09:06.620Z,19.10
2019-05-20T08:11:54.583Z,18.70
2019-05-20T08:14:42.672Z,18.10
2019-05-20T08:17:30.625Z,17.60
2019-05-20T08:20:18.671Z,17.40
2019-05-20T08:23:06.707Z,17.40
2019-05-20T08:25:54.668Z,17.60
2019-05-20T08:28:42.630Z,17.90
2019-05-20T08:31:11.427Z,18.30
2019-05-20T08:33:59.596Z,19.10
2019-05-20T08:36:28.397Z,19.90
2019-05-20T08:39:16.306Z,20.50
2019-05-20T08:42:04.333Z,20.80
2019-05-20T08:44:52.280Z,20.50
2019-05-20T08:47:40.348Z,20.50
2019-05-20T08:50:28.300Z,20.30
2019-05-20T08:53:16.240Z,20.20
2019-05-20T08:55:56.608Z,20.00
2019-05-20T08:58:37.660Z,20.20
2019-05-20T09:01:18.544Z,20.50
2019-05-20T09:03:59.458Z,21.10
2019-05-20T09:06:40.392Z,21.20
2019-05-20T09:09:12.156Z,20.80
2019-05-20T09:11:58.952Z,20.10
2019-05-20T09:14:46.901Z,19.60
2019-05-20T09:17:38.669Z,19.20
2019-05-20T09:20:24.986Z,18.60
2019-05-20T09:23:14.503Z,18.40
2019-05-20T09:26:02.538Z,18.00
2019-05-20T09:28:50.801Z,17.60
2019-05-20T09:31:39.158Z,17.30
2019-05-20T09:34:27.313Z,17.20
2019-05-20T09:37:15.326Z,17.10
2019-05-20T09:40:03.495Z,17.10
2019-05-20T09:42:51.471Z,17.10
2019-05-20T09:45:39.737Z,17.20
2019-05-20T09:48:27.701Z,17.40
2019-05-20T09:51:15.699Z,17.60
2019-05-20T09:54:04.085Z,17.80
2019-05-20T09:56:45.107Z,18.00
2019-05-20T09:59:42.164Z,18.10
2019-05-20T10:02:09.036Z,18.10
2019-05-20T10:04:50.017Z,18.20
2019-05-20T10:07:31.351Z,18.30
2019-05-20T10:10:00.232Z,18.70
2019-05-20T10:12:48.245Z,19.40
2019-05-20T10:15:36.462Z,20.10
2019-05-20T10:18:36.562Z,20.70
2019-05-20T10:21:14.437Z,21.10
2019-05-20T10:24:02.539Z,21.50
2019-05-20T10:26:50.476Z,22.00
2019-05-20T10:29:38.658Z,22.30
2019-05-20T10:32:26.829Z,22.60
2019-05-20T10:35:15.118Z,22.70
2019-05-20T10:38:03.325Z,23.00
2019-05-20T10:40:51.560Z,23.40
2019-05-20T10:43:39.928Z,23.90
2019-05-20T10:46:28.018Z,23.70
2019-05-20T10:49:16.076Z,23.60
2019-05-20T10:52:04.090Z,23.30
2019-05-20T10:54:52.225Z,23.00
2019-05-20T10:57:32.909Z,22.40
2019-05-20T11:00:13.772Z,22.10
2019-05-20T11:02:54.219Z,22.50
2019-05-20T11:05:35.142Z,21.90
2019-05-20T11:08:15.781Z,21.50
2019-05-20T11:10:56.711Z,21.00
2019-05-20T11:13:37.627Z,20.70
2019-05-20T11:16:18.451Z,20.40
2019-05-20T11:18:58.939Z,20.20
2019-05-20T11:21:39.813Z,20.00
2019-05-20T11:24:20.446Z,19.90
2019-05-20T11:27:01.115Z,19.90
2019-05-20T11:29:42.003Z,20.00
2019-05-20T11:32:22.500Z,19.80
2019-05-20T11:35:03.552Z,19.70
2019-05-20T11:37:44.261Z,19.60
2019-05-20T11:40:25.083Z,19.40
2019-05-20T11:43:06.183Z,19.40
2019-05-20T11:45:46.879Z,19.30
2019-05-20T11:48:27.764Z,19.30
2019-05-20T11:51:08.435Z,19.20
2019-05-20T11:53:49.155Z,19.10
2019-05-20T11:56:30.067Z,19.20
2019-05-20T11:59:10.771Z,19.10
2019-05-20T12:01:51.604Z,19.10
2019-05-20T12:04:32.447Z,19.10
2019-05-20T12:07:13.096Z,19.10
2019-05-20T12:09:53.858Z,19.00
2019-05-20T12:12:34.849Z,19.00
2019-05-20T12:15:15.731Z,19.00
2019-05-20T12:17:56.296Z,18.90
2019-05-20T12:20:37.267Z,18.80
2019-05-20T12:23:17.766Z,18.60
2019-05-20T12:25:58.411Z,18.50
2019-05-20T12:28:39.366Z,18.50
2019-05-20T12:34:13.470Z,18.20
2019-05-20T12:37:48.596Z,18.00
2019-05-20T12:39:40.384Z,17.80
2019-05-20T12:42:21.036Z,17.70
2019-05-20T12:45:01.714Z,17.70
2019-05-20T12:47:42.529Z,17.60
2019-05-20T12:50:23.270Z,17.50
2019-05-20T12:53:03.579Z,17.40
2019-05-20T12:55:44.095Z,17.30
2019-05-20T12:58:24.883Z,17.20
2019-05-20T13:01:05.287Z,17.20
2019-05-20T13:03:46.079Z,17.20
2019-05-20T13:06:26.585Z,17.30
2019-05-20T13:09:07.183Z,17.30
2019-05-20T13:11:48.169Z,17.30
2019-05-20T13:14:28.743Z,17.40
2019-05-20T13:17:09.470Z,17.40
2019-05-20T13:19:50.550Z,17.40
2019-05-20T13:22:19.523Z,17.30
2019-05-20T13:25:07.576Z,17.30
2019-05-20T13:27:55.539Z,17.30
2019-05-20T13:30:43.490Z,17.40
2019-05-20T13:33:31.451Z,17.30
2019-05-20T13:36:19.395Z,17.20
2019-05-20T13:39:07.665Z,17.20
2019-05-20T13:41:55.818Z,17.10
2019-05-20T13:44:43.739Z,17.10
2019-05-20T13:47:31.826Z,17.10
2019-05-20T13:50:20.012Z,17.00
2019-05-20T13:53:07.982Z,16.90
2019-05-20T13:56:16.744Z,16.90
2019-05-20T13:59:04.806Z,16.90
2019-05-20T14:04:47.087Z,16.80
2019-05-20T14:07:35.425Z,16.80
2019-05-20T14:10:23.426Z,16.70
2019-05-20T14:13:11.574Z,16.70
2019-05-20T14:15:59.592Z,16.70
2019-05-20T14:18:47.848Z,16.70
2019-05-20T14:21:35.787Z,16.70
2019-05-20T14:24:23.752Z,16.70
2019-05-20T14:27:11.944Z,16.70
2019-05-20T14:29:59.947Z,16.80
2019-05-20T14:32:47.946Z,16.70
2019-05-20T14:35:35.962Z,16.60
2019-05-20T14:38:23.927Z,16.40
2019-05-20T14:41:21.168Z,16.20
2019-05-20T14:44:01.860Z,16.00
2019-05-20T14:46:50.082Z,15.90
2019-05-20T14:49:38.044Z,15.80
2019-05-20T14:52:06.914Z,15.90
2019-05-20T14:54:54.922Z,15.90
2019-05-20T14:57:35.466Z,15.90
2019-05-20T15:00:16.070Z,15.90
2019-05-20T15:02:56.486Z,15.90
2019-05-20T15:05:37.678Z,15.80
2019-05-20T15:08:18.569Z,15.80
2019-05-20T15:10:59.367Z,15.80
2019-05-20T15:13:40.111Z,15.90
2019-05-20T15:16:20.776Z,15.80
2019-05-20T15:19:01.706Z,15.80
2019-05-20T15:21:42.565Z,15.90
2019-05-20T15:24:23.147Z,16.00
2019-05-20T15:27:04.032Z,16.00
2019-05-20T15:29:44.866Z,16.00
2019-05-20T15:32:25.498Z,15.90
2019-05-20T15:35:06.447Z,15.80
2019-05-20T15:37:47.140Z,15.80
2019-05-20T15:40:27.961Z,15.80
2019-05-20T15:42:56.927Z,15.70
2019-05-20T15:45:44.917Z,15.70
2019-05-20T15:48:32.908Z,15.60
2019-05-20T15:51:20.955Z,15.50
2019-05-20T15:54:08.912Z,15.50
2019-05-20T15:56:49.752Z,15.40
2019-05-20T15:59:44.801Z,15.30
2019-05-20T16:02:12.858Z,15.30
2019-05-20T16:04:53.451Z,15.30
2019-05-20T16:07:33.760Z,15.20
2019-05-20T16:10:14.567Z,15.20
2019-05-20T16:12:55.941Z,15.20
2019-05-20T16:15:36.330Z,15.30
2019-05-20T16:18:16.987Z,15.30
2019-05-20T16:20:58.200Z,15.30
2019-05-20T16:23:39.213Z,15.40
2019-05-20T16:26:08.032Z,15.30
2019-05-20T16:28:58.762Z,15.30
2019-05-20T16:31:46.719Z,15.30
2019-05-20T16:34:34.755Z,15.30
2019-05-20T16:37:22.710Z,15.30
2019-05-20T16:40:11.314Z,15.20
2019-05-20T16:43:00.902Z,15.20
2019-05-20T16:45:48.851Z,15.20
2019-05-20T16:48:36.798Z,15.20
2019-05-20T16:51:24.739Z,15.10
2019-05-20T16:54:12.700Z,15.10
2019-05-20T16:56:53.815Z,15.10
2019-05-20T16:59:34.469Z,15.10
2019-05-20T17:02:15.151Z,15.20
2019-05-20T17:04:55.631Z,15.20
2019-05-20T17:07:36.914Z,15.20
2019-05-20T17:10:17.471Z,15.20
2019-05-20T17:12:58.134Z,15.10
2019-05-20T17:15:39.020Z,15.10
2019-05-20T17:18:19.432Z,15.10
2019-05-20T17:21:00.352Z,15.10
2019-05-20T17:23:40.646Z,15.10
2019-05-20T17:26:21.439Z,15.10
2019-05-20T17:29:02.711Z,15.10
2019-05-20T17:31:43.715Z,15.20
2019-05-20T17:34:24.596Z,15.20
2019-05-20T17:37:05.400Z,15.20
2019-05-20T17:39:46.151Z,15.20
2019-05-20T17:42:26.609Z,15.20
2019-05-20T17:45:06.951Z,15.20
2019-05-20T17:47:47.785Z,15.20
2019-05-20T17:50:28.442Z,15.10
2019-05-20T17:53:09.053Z,15.10
2019-05-20T17:55:49.489Z,15.10
2019-05-20T17:58:30.162Z,15.10
2019-05-20T18:01:15.419Z,15.00
2019-05-20T18:03:53.016Z,15.00
2019-05-20T18:06:33.546Z,15.00
2019-05-20T18:09:14.896Z,15.00
2019-05-20T18:11:55.512Z,15.00
2019-05-20T18:14:34.591Z,15.00
2019-05-20T18:17:22.618Z,15.00
2019-05-20T18:20:11.205Z,15.00
2019-05-20T18:22:59.316Z,15.00
2019-05-20T18:25:47.258Z,15.00
2019-05-20T18:28:35.215Z,15.00
2019-05-20T18:31:32.030Z,15.00
2019-05-20T18:34:12.938Z,14.90
2019-05-20T18:37:01.052Z,15.00
2019-05-20T18:39:48.994Z,15.00
2019-05-20T18:42:36.948Z,14.90
2019-05-20T18:45:24.930Z,14.90
2019-05-20T18:48:12.907Z,14.90
2019-05-20T18:51:01.245Z,14.90
2019-05-20T18:53:49.307Z,14.90
2019-05-20T18:56:29.976Z,14.90
2019-05-20T18:59:10.462Z,14.90
2019-05-20T19:02:04.736Z,14.90
2019-05-20T19:04:33.455Z,14.90
2019-05-20T19:07:14.651Z,14.90
2019-05-20T19:09:55.347Z,14.90
2019-05-20T19:12:37.747Z,14.80
2019-05-20T19:15:26.931Z,14.80
2019-05-20T19:18:14.996Z,14.80
2019-05-20T19:21:02.995Z,14.70
2019-05-20T19:23:50.970Z,14.70
2019-05-20T19:26:38.973Z,14.60
2019-05-20T19:29:27.227Z,14.60
2019-05-20T19:35:24.349Z,14.50
2019-05-20T19:38:12.461Z,14.40
2019-05-20T19:41:00.454Z,14.40
2019-05-20T19:43:48.468Z,14.30
2019-05-20T19:46:17.207Z,14.30
2019-05-20T19:49:05.210Z,14.30
2019-05-20T19:51:53.220Z,14.30
2019-05-20T19:54:41.234Z,14.30
2019-05-20T19:57:21.957Z,14.20
2019-05-20T19:59:50.807Z,14.20
2019-05-20T20:02:38.889Z,14.20
2019-05-20T20:05:26.897Z,14.20
2019-05-20T20:08:14.888Z,14.20
2019-05-20T20:11:02.911Z,14.20
2019-05-20T20:13:51.007Z,14.20
2019-05-20T20:16:39.206Z,14.20
2019-05-20T20:19:08.255Z,14.30
2019-05-20T20:21:56.272Z,14.20
2019-05-20T20:24:44.319Z,14.20
2019-05-20T20:27:32.314Z,14.30
2019-05-20T20:30:20.499Z,14.30
2019-05-20T20:33:08.434Z,14.30
2019-05-20T20:35:56.644Z,14.30
2019-05-20T20:38:44.641Z,14.20
2019-05-20T20:41:32.662Z,14.20
2019-05-20T20:44:20.662Z,14.20
2019-05-20T20:47:08.759Z,14.10
2019-05-20T20:49:56.876Z,14.00
2019-05-20T20:52:44.840Z,14.00
2019-05-20T20:55:32.929Z,14.00
2019-05-20T20:58:14.145Z,13.90
2019-05-20T21:00:55.009Z,13.90
2019-05-20T21:03:35.704Z,13.90
2019-05-20T21:06:16.689Z,13.80
2019-05-20T21:08:57.620Z,13.80
2019-05-20T21:11:38.357Z,13.80
2019-05-20T21:14:19.322Z,13.80
2019-05-20T21:17:00.528Z,13.80
2019-05-20T21:19:41.794Z,13.80
2019-05-20T21:22:22.664Z,13.80
2019-05-20T21:25:03.683Z,13.80
2019-05-20T21:27:44.044Z,13.70
2019-05-20T21:30:24.844Z,13.70
2019-05-20T21:33:09.375Z,13.70
2019-05-20T21:35:49.034Z,13.70
2019-05-20T21:38:30.162Z,13.70
2019-05-20T21:41:10.982Z,13.70
2019-05-20T21:43:51.883Z,13.70
2019-05-20T21:46:32.789Z,13.70
2019-05-20T21:49:13.488Z,13.70
2019-05-20T21:51:54.439Z,13.70
2019-05-20T21:54:35.212Z,13.60
2019-05-20T21:57:04.259Z,13.60
2019-05-20T21:59:52.206Z,13.70
2019-05-20T22:02:40.280Z,13.60
2019-05-20T22:05:28.321Z,13.60
2019-05-20T22:08:16.644Z,13.60
2019-05-20T22:11:04.900Z,13.60
2019-05-20T22:13:52.881Z,13.60
2019-05-20T22:16:40.877Z,13.60
2019-05-20T22:19:28.864Z,13.70
2019-05-20T22:22:36.089Z,13.70
2019-05-20T22:25:24.152Z,13.60
2019-05-20T22:27:52.925Z,13.60
2019-05-20T22:30:41.054Z,13.60
2019-05-20T22:33:40.938Z,13.60
2019-05-20T22:36:18.754Z,13.60
2019-05-20T22:39:07.199Z,13.70
2019-05-20T22:41:55.197Z,13.60
2019-05-20T22:47:30.802Z,13.60
2019-05-20T22:50:18.906Z,13.60
2019-05-20T22:55:54.427Z,13.60
2019-05-20T22:58:38.414Z,13.60
2019-05-20T23:01:18.055Z,13.70
2019-05-20T23:03:58.638Z,13.70
2019-05-20T23:06:39.268Z,13.60
2019-05-20T23:09:20.343Z,13.70
2019-05-20T23:12:01.722Z,13.70
2019-05-20T23:14:42.804Z,13.60
2019-05-20T23:17:23.462Z,13.70
2019-05-20T23:20:03.893Z,13.70
2019-05-20T23:22:44.666Z,13.70
2019-05-20T23:25:25.073Z,13.60
2019-05-20T23:28:05.745Z,13.70
2019-05-20T23:30:46.619Z,13.70
2019-05-20T23:33:27.092Z,13.70
2019-05-20T23:36:07.711Z,13.70
2019-05-20T23:38:48.715Z,13.60
2019-05-20T23:41:29.144Z,13.70
2019-05-20T23:44:09.603Z,13.70
2019-05-20T23:46:50.437Z,13.70
2019-05-20T23:49:31.157Z,13.70
2019-05-20T23:52:11.960Z,13.70
2019-05-20T23:54:53.074Z,13.70
2019-05-20T23:57:33.964Z,13.70
